sensor_id;sensor_type;location;lat;lon;timestamp;pressure;altitude;pressure_sealevel;temperature;humidity
20622;BME280;10470;42.670;23.354;2023-06-22T00:02:22;95247.41;;;20.51;100.00
20622;BME280;10470;42.670;23.354;2023-06-22T00:04:49;95253.19;;;20.54;100.00
20622;BME280;10470;42.670;23.354;2023-06-22T00:07:16;95250.22;;;20.57;100.00
20622;BME280;10470;42.670;23.354;2023-06-22T00:09:43;95248.41;;;20.48;100.00
20622;BME280;10470;42.670;23.354;2023-06-22T00:12:11;95244.41;;;20.49;100.00
20622;BME280;10470;42.670;23.354;2023-06-22T00:14:38;95245.91;;;20.39;100.00
20622;BME280;10470;42.670;23.354;2023-06-22T00:17:05;95241.09;;;20.45;100.00
20622;BME280;10470;42.670;23.354;2023-06-22T00:19:33;95239.16;;;20.57;100.00
20622;BME280;10470;42.670;23.354;2023-06-22T00:22:02;95238.88;;;20.49;100.00
20622;BME280;10470;42.670;23.354;2023-06-22T00:24:31;95228.78;;;20.46;100.00
20622;BME280;10470;42.670;23.354;2023-06-22T00:29:25;95224.72;;;20.36;100.00
20622;BME280;10470;42.670;23.354;2023-06-22T00:31:52;95216.16;;;20.28;100.00
20622;BME280;10470;42.670;23.354;2023-06-22T00:34:20;95216.19;;;20.34;100.00
20622;BME280;10470;42.670;23.354;2023-06-22T00:36:47;95218.97;;;20.34;100.00
20622;BME280;10470;42.670;23.354;2023-06-22T00:39:14;95232.03;;;20.34;100.00
20622;BME280;10470;42.670;23.354;2023-06-22T00:41:42;95221.47;;;20.21;100.00
20622;BME280;10470;42.670;23.354;2023-06-22T00:44:09;95221.97;;;20.30;100.00
20622;BME280;10470;42.670;23.354;2023-06-22T00:46:37;95220.47;;;20.24;100.00
20622;BME280;10470;42.670;23.354;2023-06-22T00:49:04;95215.94;;;20.26;100.00
20622;BME280;10470;42.670;23.354;2023-06-22T00:51:32;95221.44;;;20.15;100.00
20622;BME280;10470;42.670;23.354;2023-06-22T00:53:59;95212.63;;;20.17;100.00
20622;BME280;10470;42.670;23.354;2023-06-22T00:56:28;95228.47;;;20.11;100.00
20622;BME280;10470;42.670;23.354;2023-06-22T00:58:58;95218.94;;;20.17;100.00
20622;BME280;10470;42.670;23.354;2023-06-22T01:01:26;95211.81;;;19.82;100.00
20622;BME280;10470;42.670;23.354;2023-06-22T01:03:54;95214.28;;;19.69;100.00
20622;BME280;10470;42.670;23.354;2023-06-22T01:06:35;95232.41;;;19.81;100.00
20622;BME280;10470;42.670;23.354;2023-06-22T01:09:12;95221.41;;;19.98;100.00
20622;BME280;10470;42.670;23.354;2023-06-22T01:11:45;95226.16;;;19.92;100.00
20622;BME280;10470;42.670;23.354;2023-06-22T01:14:23;95224.88;;;19.82;100.00
20622;BME280;10470;42.670;23.354;2023-06-22T01:16:51;95229.44;;;20.02;100.00
20622;BME280;10470;42.670;23.354;2023-06-22T01:19:44;95228.16;;;19.97;100.00
20622;BME280;10470;42.670;23.354;2023-06-22T01:22:16;95227.13;;;19.83;100.00
20622;BME280;10470;42.670;23.354;2023-06-22T01:25:12;95233.41;;;19.78;100.00
20622;BME280;10470;42.670;23.354;2023-06-22T01:27:50;95236.19;;;19.84;100.00
20622;BME280;10470;42.670;23.354;2023-06-22T01:30:20;95231.66;;;19.81;100.00
20622;BME280;10470;42.670;23.354;2023-06-22T01:32:48;95224.38;;;19.89;100.00
20622;BME280;10470;42.670;23.354;2023-06-22T01:35:18;95244.78;;;19.97;100.00
20622;BME280;10470;42.670;23.354;2023-06-22T01:37:46;95250.28;;;19.86;100.00
20622;BME280;10470;42.670;23.354;2023-06-22T01:40:14;95245.03;;;19.94;100.00
20622;BME280;10470;42.670;23.354;2023-06-22T01:42:42;95240.50;;;19.91;100.00
20622;BME280;10470;42.670;23.354;2023-06-22T01:45:11;95251.09;;;20.03;100.00
20622;BME280;10470;42.670;23.354;2023-06-22T01:47:39;95250.53;;;19.88;100.00
20622;BME280;10470;42.670;23.354;2023-06-22T01:50:06;95243.44;;;19.70;100.00
20622;BME280;10470;42.670;23.354;2023-06-22T01:52:34;95250.00;;;19.78;100.00
20622;BME280;10470;42.670;23.354;2023-06-22T01:55:02;95261.06;;;19.78;100.00
20622;BME280;10470;42.670;23.354;2023-06-22T01:57:30;95259.53;;;19.72;100.00
20622;BME280;10470;42.670;23.354;2023-06-22T02:00:12;95258.00;;;19.71;100.00
20622;BME280;10470;42.670;23.354;2023-06-22T02:03:01;95264.81;;;19.70;100.00
20622;BME280;10470;42.670;23.354;2023-06-22T02:05:34;95264.94;;;19.49;100.00
20622;BME280;10470;42.670;23.354;2023-06-22T02:08:13;95253.84;;;19.43;100.00
20622;BME280;10470;42.670;23.354;2023-06-22T02:10:46;95246.09;;;19.53;100.00
20622;BME280;10470;42.670;23.354;2023-06-22T02:13:14;95252.34;;;19.48;100.00
20622;BME280;10470;42.670;23.354;2023-06-22T02:15:42;95254.31;;;19.36;100.00
20622;BME280;10470;42.670;23.354;2023-06-22T02:18:09;95231.63;;;19.27;100.00
20622;BME280;10470;42.670;23.354;2023-06-22T02:20:37;95219.34;;;19.28;100.00
20622;BME280;10470;42.670;23.354;2023-06-22T02:23:05;95224.28;;;19.12;100.00
20622;BME280;10470;42.670;23.354;2023-06-22T02:25:34;95225.88;;;19.30;100.00
20622;BME280;10470;42.670;23.354;2023-06-22T02:28:01;95231.66;;;19.32;100.00
20622;BME280;10470;42.670;23.354;2023-06-22T02:30:29;95230.59;;;19.18;100.00
20622;BME280;10470;42.670;23.354;2023-06-22T02:32:57;95222.06;;;19.22;100.00
20622;BME280;10470;42.670;23.354;2023-06-22T02:35:30;95221.81;;;19.20;100.00
20622;BME280;10470;42.670;23.354;2023-06-22T02:38:03;95217.25;;;19.17;100.00
20622;BME280;10470;42.670;23.354;2023-06-22T02:40:30;95213.31;;;19.29;100.00
20622;BME280;10470;42.670;23.354;2023-06-22T02:42:58;95212.59;;;19.40;100.00
20622;BME280;10470;42.670;23.354;2023-06-22T02:45:29;95218.22;;;19.08;100.00
20622;BME280;10470;42.670;23.354;2023-06-22T02:47:56;95221.75;;;19.14;100.00
20622;BME280;10470;42.670;23.354;2023-06-22T02:50:23;95224.91;;;18.96;100.00
20622;BME280;10470;42.670;23.354;2023-06-22T02:52:51;95222.38;;;18.92;100.00
20622;BME280;10470;42.670;23.354;2023-06-22T02:55:18;95233.03;;;19.11;100.00
20622;BME280;10470;42.670;23.354;2023-06-22T02:57:45;95220.25;;;19.13;100.00
20622;BME280;10470;42.670;23.354;2023-06-22T03:00:13;95226.63;;;19.25;100.00
20622;BME280;10470;42.670;23.354;2023-06-22T03:02:45;95231.56;;;19.15;100.00
20622;BME280;10470;42.670;23.354;2023-06-22T03:05:14;95227.78;;;19.13;100.00
20622;BME280;10470;42.670;23.354;2023-06-22T03:07:44;95229.81;;;19.18;100.00
20622;BME280;10470;42.670;23.354;2023-06-22T03:10:13;95230.53;;;19.07;100.00
20622;BME280;10470;42.670;23.354;2023-06-22T03:12:42;95232.13;;;19.25;100.00
20622;BME280;10470;42.670;23.354;2023-06-22T03:15:11;95238.66;;;18.85;100.00
20622;BME280;10470;42.670;23.354;2023-06-22T03:17:40;95241.09;;;19.14;100.00
20622;BME280;10470;42.670;23.354;2023-06-22T03:20:09;95246.44;;;19.24;100.00
20622;BME280;10470;42.670;23.354;2023-06-22T03:22:39;95245.69;;;19.23;100.00
20622;BME280;10470;42.670;23.354;2023-06-22T03:25:07;95259.00;;;19.25;100.00
20622;BME280;10470;42.670;23.354;2023-06-22T03:27:41;95258.34;;;19.41;100.00
20622;BME280;10470;42.670;23.354;2023-06-22T03:30:10;95255.47;;;19.24;100.00
20622;BME280;10470;42.670;23.354;2023-06-22T03:32:38;95242.97;;;19.34;100.00
20622;BME280;10470;42.670;23.354;2023-06-22T03:35:06;95247.94;;;19.25;100.00
20622;BME280;10470;42.670;23.354;2023-06-22T03:37:33;95258.81;;;19.34;100.00
20622;BME280;10470;42.670;23.354;2023-06-22T03:40:00;95265.91;;;19.46;100.00
20622;BME280;10470;42.670;23.354;2023-06-22T03:42:27;95268.97;;;19.54;100.00
20622;BME280;10470;42.670;23.354;2023-06-22T03:44:55;95272.44;;;19.43;100.00
20622;BME280;10470;42.670;23.354;2023-06-22T03:47:22;95265.56;;;19.76;100.00
20622;BME280;10470;42.670;23.354;2023-06-22T03:49:49;95277.28;;;19.59;100.00
20622;BME280;10470;42.670;23.354;2023-06-22T03:52:16;95271.56;;;19.26;100.00
20622;BME280;10470;42.670;23.354;2023-06-22T03:54:43;95279.13;;;19.68;100.00
20622;BME280;10470;42.670;23.354;2023-06-22T03:57:10;95283.22;;;19.41;100.00
20622;BME280;10470;42.670;23.354;2023-06-22T03:59:37;95288.81;;;19.52;100.00
20622;BME280;10470;42.670;23.354;2023-06-22T04:02:05;95287.31;;;19.51;100.00
20622;BME280;10470;42.670;23.354;2023-06-22T04:04:32;95297.00;;;19.73;100.00
20622;BME280;10470;42.670;23.354;2023-06-22T04:07:01;95298.56;;;19.85;100.00
20622;BME280;10470;42.670;23.354;2023-06-22T04:09:28;95304.66;;;19.52;100.00
20622;BME280;10470;42.670;23.354;2023-06-22T04:11:56;95287.84;;;19.61;100.00
20622;BME280;10470;42.670;23.354;2023-06-22T04:14:24;95292.41;;;19.64;100.00
20622;BME280;10470;42.670;23.354;2023-06-22T04:16:51;95272.38;;;19.75;100.00
20622;BME280;10470;42.670;23.354;2023-06-22T04:19:19;95277.28;;;19.59;100.00
20622;BME280;10470;42.670;23.354;2023-06-22T04:21:47;95277.09;;;19.69;100.00
20622;BME280;10470;42.670;23.354;2023-06-22T04:24:15;95264.09;;;19.86;100.00
20622;BME280;10470;42.670;23.354;2023-06-22T04:26:42;95270.50;;;20.15;100.00
20622;BME280;10470;42.670;23.354;2023-06-22T04:29:12;95264.66;;;20.01;100.00
20622;BME280;10470;42.670;23.354;2023-06-22T04:31:39;95268.97;;;20.08;100.00
20622;BME280;10470;42.670;23.354;2023-06-22T04:34:07;95261.13;;;19.95;100.00
20622;BME280;10470;42.670;23.354;2023-06-22T04:36:36;95263.69;;;20.10;100.00
20622;BME280;10470;42.670;23.354;2023-06-22T04:39:10;95268.50;;;20.21;100.00
20622;BME280;10470;42.670;23.354;2023-06-22T04:41:39;95261.50;;;20.42;100.00
20622;BME280;10470;42.670;23.354;2023-06-22T04:44:12;95273.81;;;20.36;100.00
20622;BME280;10470;42.670;23.354;2023-06-22T04:46:40;95279.13;;;20.50;100.00
20622;BME280;10470;42.670;23.354;2023-06-22T04:49:08;95286.97;;;20.58;100.00
20622;BME280;10470;42.670;23.354;2023-06-22T04:51:41;95280.44;;;20.61;100.00
20622;BME280;10470;42.670;23.354;2023-06-22T04:54:09;95300.53;;;20.50;100.00
20622;BME280;10470;42.670;23.354;2023-06-22T04:56:37;95295.72;;;20.39;100.00
20622;BME280;10470;42.670;23.354;2023-06-22T04:59:04;95303.28;;;20.50;100.00
20622;BME280;10470;42.670;23.354;2023-06-22T05:01:32;95305.34;;;20.66;100.00
20622;BME280;10470;42.670;23.354;2023-06-22T05:03:59;95311.66;;;20.67;100.00
20622;BME280;10470;42.670;23.354;2023-06-22T05:06:28;95317.22;;;20.78;100.00
20622;BME280;10470;42.670;23.354;2023-06-22T05:08:56;95314.44;;;20.84;100.00
20622;BME280;10470;42.670;23.354;2023-06-22T05:11:27;95304.59;;;20.77;100.00
20622;BME280;10470;42.670;23.354;2023-06-22T05:13:55;95304.09;;;21.01;100.00
20622;BME280;10470;42.670;23.354;2023-06-22T05:16:23;95308.13;;;21.11;100.00
20622;BME280;10470;42.670;23.354;2023-06-22T05:18:53;95302.63;;;21.17;100.00
20622;BME280;10470;42.670;23.354;2023-06-22T05:21:25;95308.13;;;21.06;100.00
20622;BME280;10470;42.670;23.354;2023-06-22T05:23:53;95303.34;;;21.01;100.00
20622;BME280;10470;42.670;23.354;2023-06-22T05:26:20;95308.91;;;21.17;100.00
20622;BME280;10470;42.670;23.354;2023-06-22T05:28:48;95317.22;;;21.40;100.00
20622;BME280;10470;42.670;23.354;2023-06-22T05:31:16;95315.69;;;21.50;100.00
20622;BME280;10470;42.670;23.354;2023-06-22T05:33:46;95320.69;;;21.74;100.00
20622;BME280;10470;42.670;23.354;2023-06-22T05:36:15;95336.56;;;21.74;100.00
20622;BME280;10470;42.670;23.354;2023-06-22T05:38:42;95341.38;;;21.68;100.00
20622;BME280;10470;42.670;23.354;2023-06-22T05:41:10;95339.88;;;21.55;100.00
20622;BME280;10470;42.670;23.354;2023-06-22T05:43:37;95348.66;;;21.82;100.00
20622;BME280;10470;42.670;23.354;2023-06-22T05:46:04;95346.88;;;21.90;100.00
20622;BME280;10470;42.670;23.354;2023-06-22T05:48:32;95354.69;;;21.97;100.00
20622;BME280;10470;42.670;23.354;2023-06-22T05:50:59;95361.03;;;21.75;100.00
20622;BME280;10470;42.670;23.354;2023-06-22T05:53:27;95359.19;;;22.06;100.00
20622;BME280;10470;42.670;23.354;2023-06-22T05:55:53;95354.78;;;22.44;100.00
20622;BME280;10470;42.670;23.354;2023-06-22T05:58:20;95360.91;;;22.26;100.00
20622;BME280;10470;42.670;23.354;2023-06-22T06:00:47;95368.16;;;22.40;100.00
20622;BME280;10470;42.670;23.354;2023-06-22T06:03:14;95364.13;;;22.36;100.00
20622;BME280;10470;42.670;23.354;2023-06-22T06:05:43;95362.91;;;22.37;100.00
20622;BME280;10470;42.670;23.354;2023-06-22T06:08:12;95366.09;;;22.52;100.00
20622;BME280;10470;42.670;23.354;2023-06-22T06:10:39;95358.16;;;22.20;100.00
20622;BME280;10470;42.670;23.354;2023-06-22T06:13:07;95361.91;;;22.34;100.00
20622;BME280;10470;42.670;23.354;2023-06-22T06:15:34;95352.59;;;22.73;100.00
20622;BME280;10470;42.670;23.354;2023-06-22T06:18:01;95363.13;;;22.86;100.00
20622;BME280;10470;42.670;23.354;2023-06-22T06:20:32;95360.25;;;23.03;100.00
20622;BME280;10470;42.670;23.354;2023-06-22T06:22:59;95355.78;;;23.24;100.00
20622;BME280;10470;42.670;23.354;2023-06-22T06:25:25;95364.75;;;23.42;100.00
20622;BME280;10470;42.670;23.354;2023-06-22T06:27:53;95357.91;;;23.13;100.00
20622;BME280;10470;42.670;23.354;2023-06-22T06:30:21;95357.22;;;23.01;100.00
20622;BME280;10470;42.670;23.354;2023-06-22T06:32:50;95360.22;;;23.69;100.00
20622;BME280;10470;42.670;23.354;2023-06-22T06:35:17;95364.16;;;23.54;100.00
20622;BME280;10470;42.670;23.354;2023-06-22T06:37:48;95355.53;;;23.58;100.00
20622;BME280;10470;42.670;23.354;2023-06-22T06:40:17;95359.00;;;23.64;100.00
20622;BME280;10470;42.670;23.354;2023-06-22T06:42:46;95347.25;;;23.77;100.00
20622;BME280;10470;42.670;23.354;2023-06-22T06:45:19;95351.41;;;24.14;100.00
20622;BME280;10470;42.670;23.354;2023-06-22T06:47:46;95353.84;;;24.23;100.00
20622;BME280;10470;42.670;23.354;2023-06-22T06:50:13;95348.06;;;24.21;100.00
20622;BME280;10470;42.670;23.354;2023-06-22T06:52:40;95350.50;;;24.49;100.00
20622;BME280;10470;42.670;23.354;2023-06-22T06:55:09;95346.88;;;24.73;100.00
20622;BME280;10470;42.670;23.354;2023-06-22T06:57:41;95338.59;;;24.49;100.00
20622;BME280;10470;42.670;23.354;2023-06-22T07:00:11;95344.03;;;24.60;100.00
20622;BME280;10470;42.670;23.354;2023-06-22T07:02:43;95338.97;;;24.77;100.00
20622;BME280;10470;42.670;23.354;2023-06-22T07:05:12;95336.47;;;24.93;100.00
20622;BME280;10470;42.670;23.354;2023-06-22T07:07:40;95343.88;;;24.71;100.00
20622;BME280;10470;42.670;23.354;2023-06-22T07:10:09;95345.38;;;24.72;100.00
20622;BME280;10470;42.670;23.354;2023-06-22T07:12:36;95349.06;;;24.99;100.00
20622;BME280;10470;42.670;23.354;2023-06-22T07:15:05;95344.34;;;25.07;100.00
20622;BME280;10470;42.670;23.354;2023-06-22T07:17:32;95345.63;;;25.25;100.00
20622;BME280;10470;42.670;23.354;2023-06-22T07:20:00;95352.50;;;25.24;100.00
20622;BME280;10470;42.670;23.354;2023-06-22T07:22:28;95357.50;;;24.94;100.00
20622;BME280;10470;42.670;23.354;2023-06-22T07:24:55;95347.75;;;25.19;100.00
20622;BME280;10470;42.670;23.354;2023-06-22T07:27:23;95348.06;;;25.61;100.00
20622;BME280;10470;42.670;23.354;2023-06-22T07:29:50;95342.16;;;25.65;100.00
20622;BME280;10470;42.670;23.354;2023-06-22T07:32:18;95353.88;;;25.63;100.00
20622;BME280;10470;42.670;23.354;2023-06-22T07:34:45;95345.53;;;25.77;100.00
20622;BME280;10470;42.670;23.354;2023-06-22T07:37:12;95346.34;;;25.58;100.00
20622;BME280;10470;42.670;23.354;2023-06-22T07:39:40;95349.69;;;25.70;100.00
20622;BME280;10470;42.670;23.354;2023-06-22T07:42:09;95355.16;;;25.76;100.00
20622;BME280;10470;42.670;23.354;2023-06-22T07:44:36;95349.31;;;25.92;100.00
20622;BME280;10470;42.670;23.354;2023-06-22T07:47:03;95359.53;;;26.03;100.00
20622;BME280;10470;42.670;23.354;2023-06-22T07:49:31;95356.22;;;25.59;100.00
20622;BME280;10470;42.670;23.354;2023-06-22T07:51:59;95360.16;;;26.23;100.00
20622;BME280;10470;42.670;23.354;2023-06-22T07:54:28;95352.97;;;26.54;100.00
20622;BME280;10470;42.670;23.354;2023-06-22T07:56:55;95345.25;;;26.81;100.00
20622;BME280;10470;42.670;23.354;2023-06-22T07:59:22;95344.84;;;26.64;100.00
20622;BME280;10470;42.670;23.354;2023-06-22T08:01:50;95348.97;;;26.49;100.00
20622;BME280;10470;42.670;23.354;2023-06-22T08:04:17;95352.63;;;26.04;100.00
20622;BME280;10470;42.670;23.354;2023-06-22T08:06:44;95346.91;;;26.63;100.00
20622;BME280;10470;42.670;23.354;2023-06-22T08:09:12;95339.44;;;26.79;100.00
20622;BME280;10470;42.670;23.354;2023-06-22T08:11:39;95338.31;;;26.61;100.00
20622;BME280;10470;42.670;23.354;2023-06-22T08:14:06;95352.47;;;26.76;100.00
20622;BME280;10470;42.670;23.354;2023-06-22T08:16:34;95339.28;;;26.64;100.00
20622;BME280;10470;42.670;23.354;2023-06-22T08:19:01;95338.97;;;27.22;100.00
20622;BME280;10470;42.670;23.354;2023-06-22T08:21:29;95328.81;;;26.77;100.00
20622;BME280;10470;42.670;23.354;2023-06-22T08:23:57;95326.03;;;26.77;100.00
20622;BME280;10470;42.670;23.354;2023-06-22T08:26:24;95325.97;;;27.12;100.00
20622;BME280;10470;42.670;23.354;2023-06-22T08:28:52;95326.88;;;27.49;100.00
20622;BME280;10470;42.670;23.354;2023-06-22T08:31:20;95326.47;;;27.65;100.00
20622;BME280;10470;42.670;23.354;2023-06-22T08:33:48;95321.97;;;27.91;100.00
20622;BME280;10470;42.670;23.354;2023-06-22T08:36:16;95312.69;;;27.47;100.00
20622;BME280;10470;42.670;23.354;2023-06-22T08:38:44;95320.00;;;27.29;100.00
20622;BME280;10470;42.670;23.354;2023-06-22T08:41:11;95333.84;;;27.55;100.00
20622;BME280;10470;42.670;23.354;2023-06-22T08:43:39;95331.19;;;27.29;100.00
20622;BME280;10470;42.670;23.354;2023-06-22T08:46:07;95334.88;;;27.44;100.00
20622;BME280;10470;42.670;23.354;2023-06-22T08:48:35;95336.50;;;27.61;100.00
20622;BME280;10470;42.670;23.354;2023-06-22T08:51:04;95306.41;;;27.12;100.00
20622;BME280;10470;42.670;23.354;2023-06-22T08:53:31;95338.78;;;27.41;100.00
20622;BME280;10470;42.670;23.354;2023-06-22T08:55:59;95333.56;;;27.66;100.00
20622;BME280;10470;42.670;23.354;2023-06-22T08:58:27;95329.13;;;27.71;100.00
20622;BME280;10470;42.670;23.354;2023-06-22T09:00:54;95313.03;;;27.93;100.00
20622;BME280;10470;42.670;23.354;2023-06-22T09:03:21;95318.63;;;27.93;100.00
20622;BME280;10470;42.670;23.354;2023-06-22T09:05:54;95312.81;;;27.91;100.00
20622;BME280;10470;42.670;23.354;2023-06-22T09:08:22;95314.41;;;27.99;100.00
20622;BME280;10470;42.670;23.354;2023-06-22T09:10:50;95316.19;;;27.89;100.00
20622;BME280;10470;42.670;23.354;2023-06-22T09:13:18;95306.78;;;28.07;100.00
20622;BME280;10470;42.670;23.354;2023-06-22T09:15:45;95313.63;;;28.35;100.00
20622;BME280;10470;42.670;23.354;2023-06-22T09:18:13;95307.72;;;28.46;100.00
20622;BME280;10470;42.670;23.354;2023-06-22T09:20:40;95317.53;;;28.68;100.00
20622;BME280;10470;42.670;23.354;2023-06-22T09:23:08;95318.84;;;28.67;100.00
20622;BME280;10470;42.670;23.354;2023-06-22T09:25:36;95316.78;;;28.75;100.00
20622;BME280;10470;42.670;23.354;2023-06-22T09:28:03;95314.72;;;28.76;100.00
20622;BME280;10470;42.670;23.354;2023-06-22T09:30:30;95322.22;;;28.37;100.00
20622;BME280;10470;42.670;23.354;2023-06-22T09:32:58;95322.56;;;28.26;100.00
20622;BME280;10470;42.670;23.354;2023-06-22T09:35:27;95323.38;;;28.42;100.00
20622;BME280;10470;42.670;23.354;2023-06-22T09:37:54;95334.81;;;28.44;100.00
20622;BME280;10470;42.670;23.354;2023-06-22T09:40:22;95327.91;;;28.45;100.00
20622;BME280;10470;42.670;23.354;2023-06-22T09:42:49;95323.44;;;28.49;100.00
20622;BME280;10470;42.670;23.354;2023-06-22T09:45:17;95326.25;;;28.49;100.00
20622;BME280;10470;42.670;23.354;2023-06-22T09:47:45;95334.16;;;28.66;100.00
20622;BME280;10470;42.670;23.354;2023-06-22T09:50:12;95330.09;;;28.39;100.00
20622;BME280;10470;42.670;23.354;2023-06-22T09:52:40;95318.97;;;28.18;100.00
20622;BME280;10470;42.670;23.354;2023-06-22T09:55:11;95311.75;;;28.38;100.00
20622;BME280;10470;42.670;23.354;2023-06-22T09:57:38;95301.75;;;28.50;100.00
20622;BME280;10470;42.670;23.354;2023-06-22T10:00:05;95299.59;;;28.79;100.00
20622;BME280;10470;42.670;23.354;2023-06-22T10:02:36;95300.22;;;29.01;100.00
20622;BME280;10470;42.670;23.354;2023-06-22T10:05:04;95301.34;;;29.05;100.00
20622;BME280;10470;42.670;23.354;2023-06-22T10:07:32;95305.06;;;29.00;100.00
20622;BME280;10470;42.670;23.354;2023-06-22T10:09:59;95298.63;;;28.69;100.00
20622;BME280;10470;42.670;23.354;2023-06-22T10:12:27;95294.13;;;28.66;100.00
20622;BME280;10470;42.670;23.354;2023-06-22T10:14:55;95302.91;;;28.55;100.00
20622;BME280;10470;42.670;23.354;2023-06-22T10:17:22;95298.25;;;28.65;100.00
20622;BME280;10470;42.670;23.354;2023-06-22T10:19:49;95286.53;;;28.38;100.00
20622;BME280;10470;42.670;23.354;2023-06-22T10:22:17;95299.25;;;28.90;100.00
20622;BME280;10470;42.670;23.354;2023-06-22T10:24:44;95293.31;;;29.17;100.00
20622;BME280;10470;42.670;23.354;2023-06-22T10:27:13;95294.06;;;29.25;100.00
20622;BME280;10470;42.670;23.354;2023-06-22T10:29:41;95296.50;;;29.36;100.00
20622;BME280;10470;42.670;23.354;2023-06-22T10:32:09;95290.66;;;28.96;100.00
20622;BME280;10470;42.670;23.354;2023-06-22T10:34:36;95288.06;;;29.44;100.00
20622;BME280;10470;42.670;23.354;2023-06-22T10:37:03;95292.72;;;29.95;100.00
20622;BME280;10470;42.670;23.354;2023-06-22T10:39:30;95288.22;;;30.00;100.00
20622;BME280;10470;42.670;23.354;2023-06-22T10:41:57;95292.50;;;30.24;100.00
20622;BME280;10470;42.670;23.354;2023-06-22T10:44:24;95282.66;;;29.77;100.00
20622;BME280;10470;42.670;23.354;2023-06-22T10:46:51;95277.03;;;29.46;100.00
20622;BME280;10470;42.670;23.354;2023-06-22T10:49:17;95280.28;;;30.21;100.00
20622;BME280;10470;42.670;23.354;2023-06-22T10:51:45;95277.28;;;30.19;100.00
20622;BME280;10470;42.670;23.354;2023-06-22T10:54:12;95269.41;;;30.33;100.00
20622;BME280;10470;42.670;23.354;2023-06-22T10:56:40;95278.94;;;30.38;97.36
20622;BME280;10470;42.670;23.354;2023-06-22T10:59:07;95268.44;;;30.38;99.51
20622;BME280;10470;42.670;23.354;2023-06-22T11:01:35;95271.44;;;30.73;93.60
20622;BME280;10470;42.670;23.354;2023-06-22T11:04:04;95279.00;;;30.30;96.48
20622;BME280;10470;42.670;23.354;2023-06-22T11:06:31;95271.94;;;30.54;92.70
20622;BME280;10470;42.670;23.354;2023-06-22T11:08:58;95275.75;;;30.74;97.63
20622;BME280;10470;42.670;23.354;2023-06-22T11:11:25;95271.53;;;30.58;95.90
20622;BME280;10470;42.670;23.354;2023-06-22T11:13:53;95261.28;;;30.85;86.38
20622;BME280;10470;42.670;23.354;2023-06-22T11:16:21;95274.09;;;30.71;87.70
20622;BME280;10470;42.670;23.354;2023-06-22T11:18:48;95270.22;;;30.59;84.33
20622;BME280;10470;42.670;23.354;2023-06-22T11:21:15;95267.50;;;31.34;88.28
20622;BME280;10470;42.670;23.354;2023-06-22T11:23:42;95255.66;;;30.45;91.14
20622;BME280;10470;42.670;23.354;2023-06-22T11:26:10;95252.81;;;31.35;84.69
20622;BME280;10470;42.670;23.354;2023-06-22T11:28:38;95253.69;;;32.06;79.79
20622;BME280;10470;42.670;23.354;2023-06-22T11:31:05;95256.97;;;31.34;82.51
20622;BME280;10470;42.670;23.354;2023-06-22T11:33:34;95255.78;;;32.67;76.04
20622;BME280;10470;42.670;23.354;2023-06-22T11:36:01;95253.66;;;32.58;72.51
20622;BME280;10470;42.670;23.354;2023-06-22T11:38:29;95251.34;;;32.29;72.27
20622;BME280;10470;42.670;23.354;2023-06-22T11:40:58;95253.31;;;31.67;72.83
20622;BME280;10470;42.670;23.354;2023-06-22T11:43:25;95253.25;;;31.32;71.53
20622;BME280;10470;42.670;23.354;2023-06-22T11:45:53;95245.03;;;31.01;71.11
20622;BME280;10470;42.670;23.354;2023-06-22T11:48:24;95254.50;;;32.33;65.93
20622;BME280;10470;42.670;23.354;2023-06-22T11:50:51;95248.31;;;33.72;63.63
20622;BME280;10470;42.670;23.354;2023-06-22T11:53:18;95240.78;;;33.38;61.99
20622;BME280;10470;42.670;23.354;2023-06-22T11:55:46;95240.63;;;33.26;64.11
20622;BME280;10470;42.670;23.354;2023-06-22T11:58:14;95236.41;;;33.18;61.84
20622;BME280;10470;42.670;23.354;2023-06-22T12:00:41;95244.09;;;33.07;62.67
20622;BME280;10470;42.670;23.354;2023-06-22T12:03:09;95238.31;;;32.51;67.34
20622;BME280;10470;42.670;23.354;2023-06-22T12:05:38;95243.44;;;32.62;66.69
20622;BME280;10470;42.670;23.354;2023-06-22T12:08:06;95245.50;;;32.17;62.89
20622;BME280;10470;42.670;23.354;2023-06-22T12:10:34;95230.53;;;32.25;66.49
20622;BME280;10470;42.670;23.354;2023-06-22T12:13:02;95235.16;;;31.77;72.43
20622;BME280;10470;42.670;23.354;2023-06-22T12:15:31;95254.00;;;31.58;70.74
20622;BME280;10470;42.670;23.354;2023-06-22T12:17:57;95246.97;;;30.91;73.37
20622;BME280;10470;42.670;23.354;2023-06-22T12:20:25;95248.59;;;30.69;78.69
20622;BME280;10470;42.670;23.354;2023-06-22T12:22:52;95252.63;;;30.51;86.68
20622;BME280;10470;42.670;23.354;2023-06-22T12:25:20;95262.94;;;30.00;98.79
20622;BME280;10470;42.670;23.354;2023-06-22T12:27:47;95266.72;;;29.87;100.00
20622;BME280;10470;42.670;23.354;2023-06-22T12:30:16;95262.34;;;28.71;100.00
20622;BME280;10470;42.670;23.354;2023-06-22T12:32:44;95270.28;;;29.49;100.00
20622;BME280;10470;42.670;23.354;2023-06-22T12:35:11;95277.78;;;29.39;100.00
20622;BME280;10470;42.670;23.354;2023-06-22T12:37:41;95288.66;;;29.20;100.00
20622;BME280;10470;42.670;23.354;2023-06-22T12:40:10;95282.09;;;29.17;100.00
20622;BME280;10470;42.670;23.354;2023-06-22T12:42:37;95272.59;;;28.53;100.00
20622;BME280;10470;42.670;23.354;2023-06-22T12:45:05;95284.47;;;28.30;100.00
20622;BME280;10470;42.670;23.354;2023-06-22T12:47:32;95270.94;;;27.56;100.00
20622;BME280;10470;42.670;23.354;2023-06-22T12:50:00;95274.28;;;27.55;100.00